createdAt,value
2022-11-16T00:01:57.300Z,9.45
2022-11-16T00:04:27.255Z,9.50
2022-11-16T00:06:54.953Z,11.13
2022-11-16T00:09:27.221Z,9.18
2022-11-16T00:11:57.130Z,9.98
2022-11-16T00:14:26.997Z,8.85
2022-11-16T00:16:54.818Z,8.03
2022-11-16T00:19:22.980Z,10.70
2022-11-16T00:21:52.551Z,10.60
2022-11-16T00:24:24.368Z,10.00
2022-11-16T00:26:54.076Z,10.85
2022-11-16T00:29:24.781Z,12.83
2022-11-16T00:31:53.711Z,10.20
2022-11-16T00:34:22.607Z,16.65
2022-11-16T00:36:52.019Z,13.95
2022-11-16T00:39:21.001Z,11.18
2022-11-16T00:41:49.523Z,11.37
2022-11-16T00:44:18.114Z,11.48
2022-11-16T00:46:45.804Z,13.70
2022-11-16T00:49:14.616Z,13.50
2022-11-16T00:51:43.332Z,15.98
2022-11-16T00:54:12.576Z,12.93
2022-11-16T00:56:40.620Z,15.50
2022-11-16T00:59:08.434Z,16.55
2022-11-16T01:01:36.625Z,15.13
2022-11-16T01:04:04.943Z,14.77
2022-11-16T01:06:38.668Z,14.57
2022-11-16T01:09:06.515Z,11.20
2022-11-16T01:11:52.851Z,9.77
2022-11-16T01:14:20.761Z,10.50
2022-11-16T01:16:50.575Z,11.10
2022-11-16T01:19:18.640Z,12.70
2022-11-16T01:21:46.343Z,13.35
2022-11-16T01:24:14.121Z,12.45
2022-11-16T01:26:43.128Z,10.98
2022-11-16T01:29:11.120Z,16.85
2022-11-16T01:31:38.824Z,14.90
2022-11-16T01:34:06.978Z,17.33
2022-11-16T01:36:36.627Z,14.43
2022-11-16T01:39:05.994Z,14.25
2022-11-16T01:41:33.930Z,13.65
2022-11-16T01:44:05.179Z,16.00
2022-11-16T01:46:33.554Z,12.07
2022-11-16T01:49:06.065Z,12.75
2022-11-16T01:51:35.042Z,12.63
2022-11-16T01:54:06.024Z,15.13
2022-11-16T01:56:34.401Z,12.70
2022-11-16T01:59:04.103Z,13.80
2022-11-16T02:01:31.778Z,11.05
2022-11-16T02:03:59.613Z,12.23
2022-11-16T02:07:06.954Z,14.00
2022-11-16T02:10:01.321Z,11.00
2022-11-16T02:13:01.775Z,14.23
2022-11-16T02:15:39.501Z,13.20
2022-11-16T02:18:20.633Z,12.13
2022-11-16T02:21:23.091Z,13.27
2022-11-16T02:24:21.251Z,17.53
2022-11-16T02:27:12.089Z,13.25
2022-11-16T02:29:44.282Z,12.30
2022-11-16T02:32:16.142Z,14.18
2022-11-16T02:34:48.366Z,13.85
2022-11-16T02:37:22.013Z,14.20
2022-11-16T02:39:53.532Z,13.10
2022-11-16T02:42:25.182Z,13.15
2022-11-16T02:44:56.770Z,13.15
2022-11-16T02:47:27.514Z,12.63
2022-11-16T02:49:59.322Z,12.97
2022-11-16T02:52:29.365Z,13.30
2022-11-16T02:54:57.514Z,11.40
2022-11-16T02:57:41.972Z,12.07
2022-11-16T03:00:17.218Z,12.32
2022-11-16T03:02:50.767Z,14.80
2022-11-16T03:05:21.626Z,17.23
2022-11-16T03:07:55.761Z,14.20
2022-11-16T03:10:38.282Z,14.85
2022-11-16T03:13:07.540Z,14.70
2022-11-16T03:15:38.940Z,13.73
2022-11-16T03:18:08.229Z,17.27
2022-11-16T03:20:40.815Z,15.25
2022-11-16T03:23:11.292Z,13.40
2022-11-16T03:25:46.651Z,13.25
2022-11-16T03:28:22.682Z,13.07
2022-11-16T03:30:55.991Z,11.85
2022-11-16T03:33:29.154Z,15.75
2022-11-16T03:36:00.759Z,12.60
2022-11-16T03:38:30.331Z,13.65
2022-11-16T03:41:02.610Z,14.10
2022-11-16T03:43:32.846Z,14.90
2022-11-16T03:46:02.370Z,12.85
2022-11-16T03:48:38.605Z,13.50
2022-11-16T03:51:07.318Z,13.70
2022-11-16T03:53:36.819Z,13.27
2022-11-16T03:56:04.893Z,14.63
2022-11-16T03:58:33.196Z,12.60
2022-11-16T04:01:03.462Z,11.15
2022-11-16T04:07:30.105Z,11.07
2022-11-16T04:10:22.004Z,12.90
2022-11-16T04:13:07.538Z,11.63
2022-11-16T04:15:55.524Z,10.48
2022-11-16T04:18:42.828Z,11.55
2022-11-16T04:21:36.991Z,11.67
2022-11-16T04:24:15.764Z,11.57
2022-11-16T04:27:03.960Z,11.48
2022-11-16T04:29:46.450Z,11.27
2022-11-16T04:32:35.040Z,11.40
2022-11-16T04:35:27.750Z,9.67
2022-11-16T04:37:57.710Z,11.00
2022-11-16T04:40:29.609Z,13.57
2022-11-16T04:42:59.018Z,10.38
2022-11-16T04:45:45.985Z,10.73
2022-11-16T04:48:15.634Z,13.93
2022-11-16T04:50:45.611Z,13.70
2022-11-16T04:53:13.381Z,12.85
2022-11-16T04:55:41.217Z,12.18
2022-11-16T04:58:09.196Z,11.38
2022-11-16T05:00:36.846Z,12.43
2022-11-16T05:03:05.307Z,11.80
2022-11-16T05:05:33.099Z,12.18
2022-11-16T05:08:02.112Z,11.30
2022-11-16T05:10:29.944Z,11.82
2022-11-16T05:12:58.741Z,11.67
2022-11-16T05:15:26.375Z,11.27
2022-11-16T05:17:55.741Z,11.80
2022-11-16T05:20:41.027Z,13.35
2022-11-16T05:23:30.768Z,12.02
2022-11-16T05:25:58.672Z,12.57
2022-11-16T05:28:26.280Z,12.82
2022-11-16T05:30:54.337Z,15.27
2022-11-16T05:33:22.422Z,13.70
2022-11-16T05:35:50.788Z,10.80
2022-11-16T05:38:20.021Z,11.67
2022-11-16T05:40:47.966Z,12.23
2022-11-16T05:43:15.576Z,10.85
2022-11-16T05:45:44.078Z,9.45
2022-11-16T05:48:12.058Z,10.38
2022-11-16T05:50:42.695Z,10.33
2022-11-16T05:53:10.989Z,10.27
2022-11-16T05:55:40.181Z,11.07
2022-11-16T05:58:07.808Z,13.50
2022-11-16T06:00:35.408Z,11.25
2022-11-16T06:03:03.380Z,12.33
2022-11-16T06:05:32.473Z,17.98
2022-11-16T06:08:01.839Z,11.93
2022-11-16T06:10:29.621Z,15.70
2022-11-16T06:12:59.019Z,14.60
2022-11-16T06:15:26.613Z,12.20
2022-11-16T06:17:54.406Z,14.05
2022-11-16T06:20:22.141Z,11.82
2022-11-16T06:22:50.201Z,12.70
2022-11-16T06:25:18.241Z,12.75
2022-11-16T06:27:45.886Z,13.97
2022-11-16T06:30:18.368Z,12.70
2022-11-16T06:32:48.059Z,12.70
2022-11-16T06:35:19.423Z,15.25
2022-11-16T06:37:50.135Z,10.82
2022-11-16T06:40:18.439Z,12.30
2022-11-16T06:42:47.173Z,12.05
2022-11-16T06:45:17.889Z,13.40
2022-11-16T06:47:45.480Z,12.60
2022-11-16T06:50:15.196Z,11.98
2022-11-16T06:52:42.960Z,11.47
2022-11-16T06:55:13.898Z,12.27
2022-11-16T06:57:41.560Z,13.15
2022-11-16T07:00:11.633Z,12.88
2022-11-16T07:02:41.342Z,11.10
2022-11-16T07:05:09.584Z,17.03
2022-11-16T07:07:37.438Z,13.50
2022-11-16T07:10:06.190Z,12.27
2022-11-16T07:12:34.075Z,12.65
2022-11-16T07:15:01.822Z,15.57
2022-11-16T07:17:29.406Z,16.33
2022-11-16T07:20:00.597Z,14.02
2022-11-16T07:22:28.526Z,14.15
2022-11-16T07:24:56.246Z,13.77
2022-11-16T07:27:23.823Z,14.65
2022-11-16T07:29:51.622Z,14.37
2022-11-16T07:32:19.378Z,17.67
2022-11-16T07:34:50.729Z,13.77
2022-11-16T07:37:19.944Z,13.02
2022-11-16T07:39:47.552Z,11.80
2022-11-16T07:42:15.363Z,13.77
2022-11-16T07:44:42.937Z,13.48
2022-11-16T07:47:10.552Z,12.23
2022-11-16T07:49:40.407Z,11.05
2022-11-16T07:52:09.812Z,11.77
2022-11-16T07:54:38.935Z,10.77
2022-11-16T07:57:06.619Z,9.77
2022-11-16T07:59:34.488Z,9.35
2022-11-16T08:02:02.490Z,10.07
2022-11-16T08:04:30.221Z,12.35
2022-11-16T08:06:58.058Z,10.00
2022-11-16T08:09:25.819Z,7.55
2022-11-16T08:11:54.876Z,10.77
2022-11-16T08:14:22.476Z,9.50
2022-11-16T08:16:50.331Z,9.77
2022-11-16T08:19:18.159Z,8.70
2022-11-16T08:21:45.845Z,9.32
2022-11-16T08:24:13.521Z,9.20
2022-11-16T08:26:41.709Z,9.77
2022-11-16T08:29:15.001Z,8.38
2022-11-16T08:31:45.452Z,9.53
2022-11-16T08:34:13.882Z,10.82
2022-11-16T08:36:41.673Z,6.80
2022-11-16T08:39:09.412Z,9.18
2022-11-16T08:41:37.848Z,8.00
2022-11-16T08:44:05.825Z,7.47
2022-11-16T08:46:34.845Z,8.20
2022-11-16T08:49:02.584Z,8.77
2022-11-16T08:51:30.214Z,6.75
2022-11-16T08:53:59.123Z,9.23
2022-11-16T08:56:27.485Z,6.40
2022-11-16T08:58:58.875Z,7.78
2022-11-16T09:01:29.019Z,8.75
2022-11-16T09:03:58.503Z,10.73
2022-11-16T09:06:27.513Z,9.65
2022-11-16T09:08:55.272Z,8.00
2022-11-16T09:11:24.603Z,7.35
2022-11-16T09:13:53.816Z,7.28
2022-11-16T09:16:25.683Z,7.95
2022-11-16T09:18:53.602Z,6.13
2022-11-16T09:21:24.285Z,6.47
2022-11-16T09:23:52.442Z,6.38
2022-11-16T09:26:23.070Z,5.95
2022-11-16T09:28:57.040Z,6.65
2022-11-16T09:31:27.543Z,5.47
2022-11-16T09:33:58.354Z,5.73
2022-11-16T09:36:28.309Z,6.03
2022-11-16T09:39:23.751Z,6.25
2022-11-16T09:41:54.077Z,6.70
2022-11-16T09:44:39.762Z,9.45
2022-11-16T09:47:17.344Z,10.83
2022-11-16T09:49:50.114Z,8.68
2022-11-16T09:52:28.591Z,7.50
2022-11-16T09:54:58.061Z,9.05
2022-11-16T09:57:32.828Z,7.93
2022-11-16T10:00:04.630Z,6.90
2022-11-16T10:02:37.582Z,6.20
2022-11-16T10:05:15.011Z,9.52
2022-11-16T10:07:46.714Z,6.82
2022-11-16T10:10:15.827Z,8.35
2022-11-16T10:12:49.809Z,6.77
2022-11-16T10:15:39.172Z,7.13
2022-11-16T10:18:27.359Z,6.90
2022-11-16T10:21:10.381Z,6.82
2022-11-16T10:23:52.157Z,8.85
2022-11-16T10:26:28.714Z,8.97
2022-11-16T10:29:24.118Z,6.95
2022-11-16T10:32:18.810Z,4.60
2022-11-16T10:34:52.540Z,7.55
2022-11-16T10:37:20.994Z,5.22
2022-11-16T10:39:53.378Z,5.13
2022-11-16T10:42:27.900Z,6.03
2022-11-16T10:44:59.791Z,5.57
2022-11-16T10:47:34.159Z,6.35
2022-11-16T10:50:05.009Z,5.38
2022-11-16T10:52:32.635Z,5.07
2022-11-16T10:55:01.602Z,6.40
2022-11-16T10:57:55.791Z,6.53
2022-11-16T11:00:40.326Z,7.43
2022-11-16T11:03:10.878Z,7.07
2022-11-16T11:05:47.088Z,6.50
2022-11-16T11:08:25.238Z,6.88
2022-11-16T11:11:23.782Z,5.72
2022-11-16T11:14:06.028Z,10.75
2022-11-16T11:16:33.944Z,8.63
2022-11-16T11:19:20.334Z,12.33
2022-11-16T11:21:48.556Z,12.43
2022-11-16T11:24:43.315Z,10.75
2022-11-16T11:27:07.917Z,12.32
2022-11-16T11:29:38.650Z,8.45
2022-11-16T11:32:08.773Z,9.23
2022-11-16T11:34:41.851Z,9.25
2022-11-16T11:37:16.003Z,8.95
2022-11-16T11:39:44.145Z,13.55
2022-11-16T11:42:24.431Z,9.65
2022-11-16T11:44:57.758Z,9.63
2022-11-16T11:50:28.582Z,5.25
2022-11-16T11:53:09.055Z,5.90
2022-11-16T11:55:38.372Z,6.43
2022-11-16T11:58:12.267Z,7.27
2022-11-16T12:00:50.260Z,7.30
2022-11-16T12:03:47.415Z,6.75
2022-11-16T12:06:23.997Z,8.25
2022-11-16T12:09:16.965Z,7.40
2022-11-16T12:12:02.657Z,6.87
2022-11-16T12:14:47.006Z,6.43
2022-11-16T12:17:22.621Z,8.18
2022-11-16T12:20:18.034Z,5.90
2022-11-16T12:23:12.944Z,6.05
2022-11-16T12:25:50.158Z,6.83
2022-11-16T12:28:33.251Z,6.93
2022-11-16T12:31:19.472Z,4.90
2022-11-16T12:33:57.237Z,5.88
2022-11-16T12:36:34.384Z,9.40
2022-11-16T12:39:14.462Z,6.10
2022-11-16T12:42:20.883Z,4.85
2022-11-16T12:45:15.903Z,5.55
2022-11-16T12:48:00.981Z,7.50
2022-11-16T12:50:46.481Z,4.82
2022-11-16T12:53:32.606Z,13.73
2022-11-16T12:56:09.853Z,13.00
2022-11-16T12:58:52.321Z,8.10
2022-11-16T13:01:25.995Z,5.65
2022-11-16T13:03:57.223Z,6.20
2022-11-16T13:06:30.486Z,6.37
2022-11-16T13:09:04.607Z,7.90
2022-11-16T13:11:39.859Z,10.52
2022-11-16T13:14:12.334Z,11.25
2022-11-16T13:16:40.760Z,10.57
2022-11-16T13:19:14.271Z,6.17
2022-11-16T13:21:50.742Z,8.07
2022-11-16T13:24:32.151Z,8.43
2022-11-16T13:27:16.068Z,7.80
2022-11-16T13:29:48.983Z,7.15
2022-11-16T13:32:20.916Z,6.70
2022-11-16T13:34:50.976Z,5.68
2022-11-16T13:37:45.223Z,6.65
2022-11-16T13:40:25.864Z,6.72
2022-11-16T13:43:18.846Z,8.20
2022-11-16T13:45:57.143Z,6.97
2022-11-16T13:48:28.744Z,8.52
2022-11-16T13:50:59.823Z,7.47
2022-11-16T13:56:21.830Z,8.93
2022-11-16T13:58:55.197Z,9.17
2022-11-16T14:01:24.011Z,8.85
2022-11-16T14:03:52.896Z,7.15
2022-11-16T14:07:00.301Z,6.57
2022-11-16T14:09:43.596Z,8.32
2022-11-16T14:12:56.032Z,8.07
2022-11-16T14:15:25.882Z,5.90
2022-11-16T14:17:58.166Z,6.03
2022-11-16T14:20:34.467Z,5.88
2022-11-16T14:23:13.247Z,7.70
2022-11-16T14:25:47.808Z,7.87
2022-11-16T14:28:37.457Z,7.03
2022-11-16T14:31:16.999Z,9.85
2022-11-16T14:33:51.012Z,8.57
2022-11-16T14:36:19.202Z,8.30
2022-11-16T14:38:48.226Z,7.33
2022-11-16T14:41:21.521Z,10.73
2022-11-16T14:43:52.020Z,12.45
2022-11-16T14:46:24.089Z,11.35
2022-11-16T14:48:56.033Z,8.93
2022-11-16T14:51:27.199Z,9.50
2022-11-16T14:54:01.745Z,12.93
2022-11-16T14:56:29.516Z,14.73
2022-11-16T14:58:58.821Z,12.07
2022-11-16T15:01:29.187Z,17.65
2022-11-16T15:04:02.268Z,10.23
2022-11-16T15:06:31.497Z,7.07
2022-11-16T15:09:03.978Z,9.27
2022-11-16T15:11:52.147Z,9.32
2022-11-16T15:14:22.014Z,8.63
2022-11-16T15:16:51.879Z,8.50
2022-11-16T15:19:20.259Z,8.82
2022-11-16T15:21:53.276Z,9.75
2022-11-16T15:24:30.931Z,9.45
2022-11-16T15:27:04.308Z,10.05
2022-11-16T15:29:31.933Z,9.37
2022-11-16T15:31:59.799Z,8.38
2022-11-16T15:34:27.690Z,11.32
2022-11-16T15:36:55.277Z,12.43
2022-11-16T15:39:27.237Z,12.75
2022-11-16T15:42:02.175Z,17.80
2022-11-16T15:44:32.155Z,16.80
2022-11-16T15:47:00.528Z,14.40
2022-11-16T15:49:30.404Z,10.63
2022-11-16T15:51:59.584Z,12.65
2022-11-16T15:54:30.228Z,11.00
2022-11-16T15:57:06.769Z,10.15
2022-11-16T15:59:36.890Z,11.25
2022-11-16T16:02:05.178Z,13.88
2022-11-16T16:04:32.889Z,16.73
2022-11-16T16:07:01.723Z,13.10
2022-11-16T16:09:32.420Z,12.20
2022-11-16T16:12:17.803Z,11.63
2022-11-16T16:14:48.432Z,10.65
2022-11-16T16:17:24.477Z,24.55
2022-11-16T16:19:56.268Z,18.10
2022-11-16T16:22:27.794Z,14.07
2022-11-16T16:24:57.396Z,14.40
2022-11-16T16:27:26.827Z,11.98
2022-11-16T16:29:56.909Z,13.68
2022-11-16T16:32:26.743Z,12.97
2022-11-16T16:34:55.544Z,15.18
2022-11-16T16:37:23.631Z,11.68
2022-11-16T16:39:51.221Z,10.63
2022-11-16T16:42:20.610Z,12.57
2022-11-16T16:44:49.547Z,10.80
2022-11-16T16:47:20.540Z,8.80
2022-11-16T16:49:48.413Z,8.10
2022-11-16T16:52:16.024Z,10.77
2022-11-16T16:54:43.997Z,9.30
2022-11-16T16:57:15.245Z,9.00
2022-11-16T16:59:45.502Z,9.13
2022-11-16T17:02:14.063Z,10.48
2022-11-16T17:04:43.839Z,13.07
2022-11-16T17:07:12.182Z,11.82
2022-11-16T17:09:40.215Z,12.03
2022-11-16T17:12:10.021Z,11.88
2022-11-16T17:14:37.853Z,12.98
2022-11-16T17:17:06.963Z,12.50
2022-11-16T17:19:34.748Z,11.88
2022-11-16T17:22:02.322Z,10.63
2022-11-16T17:24:29.923Z,11.63
2022-11-16T17:26:57.685Z,13.48
2022-11-16T17:29:25.309Z,13.05
2022-11-16T17:31:52.900Z,13.07
2022-11-16T17:34:22.281Z,11.17
2022-11-16T17:36:49.998Z,12.27
2022-11-16T17:39:17.683Z,11.00
2022-11-16T17:41:45.484Z,10.32
2022-11-16T17:44:17.179Z,13.98
2022-11-16T17:46:48.101Z,14.13
2022-11-16T17:49:18.624Z,14.00
2022-11-16T17:51:47.754Z,15.13
2022-11-16T17:54:15.587Z,14.77
2022-11-16T17:56:43.334Z,12.80
2022-11-16T17:59:11.204Z,13.53
2022-11-16T18:01:39.505Z,11.32
2022-11-16T18:04:07.466Z,11.27
2022-11-16T18:06:35.621Z,11.68
2022-11-16T18:09:04.830Z,11.45
2022-11-16T18:11:32.809Z,13.87
2022-11-16T18:14:01.925Z,10.35
2022-11-16T18:16:31.686Z,13.27
2022-11-16T18:19:01.516Z,14.50
2022-11-16T18:21:29.473Z,11.13
2022-11-16T18:23:57.406Z,11.50
2022-11-16T18:26:27.078Z,13.93
2022-11-16T18:28:54.683Z,13.63
2022-11-16T18:31:24.314Z,13.48
2022-11-16T18:33:52.828Z,18.50
2022-11-16T18:36:22.073Z,28.00
2022-11-16T18:38:49.952Z,22.60
2022-11-16T18:41:20.426Z,19.00
2022-11-16T18:43:54.480Z,11.73
2022-11-16T18:46:24.170Z,13.82
2022-11-16T18:48:52.001Z,13.50
2022-11-16T18:51:20.922Z,15.60
2022-11-16T18:53:48.866Z,16.25
2022-11-16T18:56:19.954Z,14.90
2022-11-16T18:58:53.783Z,23.50
2022-11-16T19:01:28.631Z,18.53
2022-11-16T19:04:02.766Z,18.65
2022-11-16T19:06:32.715Z,14.45
2022-11-16T19:09:00.358Z,15.23
2022-11-16T19:11:29.013Z,17.48
2022-11-16T19:14:00.934Z,15.73
2022-11-16T19:16:29.096Z,17.92
2022-11-16T19:18:56.889Z,21.42
2022-11-16T19:21:26.217Z,27.60
2022-11-16T19:23:55.257Z,20.08
2022-11-16T19:26:28.864Z,21.83
2022-11-16T19:28:58.912Z,20.52
2022-11-16T19:31:28.808Z,17.63
2022-11-16T19:34:00.854Z,16.80
2022-11-16T19:36:34.921Z,13.80
2022-11-16T19:39:03.071Z,12.20
2022-11-16T19:41:30.672Z,14.27
2022-11-16T19:44:01.893Z,10.80
2022-11-16T19:46:31.889Z,14.25
2022-11-16T19:49:00.733Z,14.77
2022-11-16T19:51:31.880Z,12.23
2022-11-16T19:54:00.671Z,12.75
2022-11-16T19:56:28.577Z,14.50
2022-11-16T19:58:56.175Z,13.18
2022-11-16T20:01:29.331Z,12.93
2022-11-16T20:03:58.627Z,13.53
2022-11-16T20:06:29.228Z,13.32
2022-11-16T20:09:08.861Z,16.40
2022-11-16T20:11:39.976Z,15.63
2022-11-16T20:14:09.391Z,20.20
2022-11-16T20:16:40.681Z,23.30
2022-11-16T20:19:10.730Z,20.33
2022-11-16T20:21:41.024Z,19.02
2022-11-16T20:24:12.901Z,19.40
2022-11-16T20:26:46.077Z,15.65
2022-11-16T20:29:14.951Z,18.87
2022-11-16T20:31:46.408Z,20.73
2022-11-16T20:34:15.531Z,20.85
2022-11-16T20:36:44.585Z,19.30
2022-11-16T20:39:15.001Z,25.08
2022-11-16T20:41:43.895Z,32.77
2022-11-16T20:44:16.530Z,34.03
2022-11-16T20:46:46.283Z,32.15
2022-11-16T20:49:14.353Z,56.80
2022-11-16T20:51:42.398Z,32.42
2022-11-16T20:54:10.094Z,20.93
2022-11-16T20:56:37.752Z,18.30
2022-11-16T20:59:05.623Z,17.63
2022-11-16T21:01:33.321Z,15.13
2022-11-16T21:04:04.069Z,14.60
2022-11-16T21:06:35.133Z,14.63
2022-11-16T21:09:04.412Z,15.85
2022-11-16T21:11:53.853Z,18.70
2022-11-16T21:14:20.621Z,15.15
2022-11-16T21:16:48.587Z,13.93
2022-11-16T21:19:18.337Z,13.33
2022-11-16T21:21:46.270Z,18.38
2022-11-16T21:24:13.957Z,16.30
2022-11-16T21:26:41.656Z,15.07
2022-11-16T21:29:09.477Z,19.13
2022-11-16T21:31:37.920Z,15.47
2022-11-16T21:34:07.645Z,17.60
2022-11-16T21:36:37.231Z,18.58
2022-11-16T21:39:04.968Z,16.50
2022-11-16T21:41:32.734Z,17.77
2022-11-16T21:44:00.521Z,16.13
2022-11-16T21:46:28.547Z,17.00
2022-11-16T21:48:56.986Z,16.50
2022-11-16T21:51:27.412Z,17.00
2022-11-16T21:53:56.431Z,19.85
2022-11-16T21:56:26.036Z,23.43
2022-11-16T21:58:54.911Z,27.25
2022-11-16T22:01:24.256Z,25.25
2022-11-16T22:04:06.213Z,24.77
2022-11-16T22:06:51.410Z,23.15
2022-11-16T22:09:20.609Z,19.67
2022-11-16T22:11:48.284Z,17.65
2022-11-16T22:14:15.890Z,13.98
2022-11-16T22:16:43.481Z,15.48
2022-11-16T22:19:11.351Z,16.08
2022-11-16T22:21:38.975Z,16.17
2022-11-16T22:24:07.448Z,14.38
2022-11-16T22:26:38.188Z,13.30
2022-11-16T22:29:05.913Z,12.18
2022-11-16T22:31:34.355Z,15.13
2022-11-16T22:34:02.178Z,13.23
2022-11-16T22:36:30.190Z,14.82
2022-11-16T22:38:58.196Z,12.73
2022-11-16T22:41:25.884Z,13.18
2022-11-16T22:43:55.048Z,11.55
2022-11-16T22:46:22.928Z,13.30
2022-11-16T22:48:50.561Z,14.82
2022-11-16T22:51:20.490Z,13.05
2022-11-16T22:53:48.432Z,15.45
2022-11-16T22:56:16.021Z,13.13
2022-11-16T22:58:43.572Z,13.53
2022-11-16T23:01:12.857Z,11.65
2022-11-16T23:03:40.865Z,12.48
2022-11-16T23:06:09.199Z,12.20
2022-11-16T23:08:37.955Z,12.63
2022-11-16T23:11:25.858Z,14.73
2022-11-16T23:14:12.896Z,11.02
2022-11-16T23:16:42.890Z,13.52
2022-11-16T23:19:26.802Z,16.10
2022-11-16T23:22:12.547Z,13.43
2022-11-16T23:24:57.822Z,13.63
2022-11-16T23:27:31.567Z,14.65
2022-11-16T23:30:01.077Z,14.02
2022-11-16T23:32:31.188Z,12.32
2022-11-16T23:34:59.395Z,13.60
2022-11-16T23:37:27.146Z,13.67
2022-11-16T23:39:54.952Z,13.57
2022-11-16T23:42:40.030Z,12.90
2022-11-16T23:45:08.241Z,11.63
2022-11-16T23:47:37.165Z,13.93
2022-11-16T23:50:05.764Z,15.03
2022-11-16T23:52:33.531Z,11.93
2022-11-16T23:55:01.149Z,12.65
2022-11-16T23:57:28.694Z,13.00
2022-11-16T23:59:56.437Z,12.07
